Shorbes Hill, Pennsylvania
Current Conditions -  °F | °C
As of 11:27 AM on Monday 26 Jan 2015 (Local Time) from KTHV Reporting Station
Light Snow Light Snow  
Wind Chill: 16°   Ceiling: 1600
Heat Index: 25°   Visibility: 1.5mi
Dew Point: 21°   Wind: 9mph
Humidity: 85%   Direction: 60°ENE
Pressure: 29.83"   Gusts: NA
Location:  39.7863°N, 76.988°W
Report Text: KTHV 261627Z AUTO 06008KT 1 1/2SM -SN BR OVC016 M04/M06 A2983 RMK AO2 SNB04 P0000 T10391061
Loading
Personal Weather Stations






























Interactive Weather Map New forecast layout! Learn more

10-Day Weather Forecast

Advertisements
Track Severe Weather on mobile